sensor_id;sensor_type;location;lat;lon;timestamp;temperature;humidity
10175;DHT22;18221;38.704;0.152;2022-10-16T00:09:24;20.50;99.90
10175;DHT22;18221;38.704;0.152;2022-10-16T00:11:52;20.50;99.90
10175;DHT22;18221;38.704;0.152;2022-10-16T00:14:20;20.40;99.90
10175;DHT22;18221;38.704;0.152;2022-10-16T00:16:48;20.40;99.90
10175;DHT22;18221;38.704;0.152;2022-10-16T00:19:16;20.40;99.90
10175;DHT22;18221;38.704;0.152;2022-10-16T00:21:44;20.40;99.90
10175;DHT22;18221;38.704;0.152;2022-10-16T00:24:11;20.40;99.90
10175;DHT22;18221;38.704;0.152;2022-10-16T00:26:41;20.30;99.90
10175;DHT22;18221;38.704;0.152;2022-10-16T00:29:09;20.30;99.90
10175;DHT22;18221;38.704;0.152;2022-10-16T00:31:37;20.30;99.90
10175;DHT22;18221;38.704;0.152;2022-10-16T00:34:05;20.30;99.90
10175;DHT22;18221;38.704;0.152;2022-10-16T00:36:33;20.30;99.90
10175;DHT22;18221;38.704;0.152;2022-10-16T00:39:00;20.30;99.90
10175;DHT22;18221;38.704;0.152;2022-10-16T00:41:29;20.30;99.90
10175;DHT22;18221;38.704;0.152;2022-10-16T00:44:00;20.20;99.90
10175;DHT22;18221;38.704;0.152;2022-10-16T00:46:34;20.20;99.90
10175;DHT22;18221;38.704;0.152;2022-10-16T00:49:05;20.20;99.90
10175;DHT22;18221;38.704;0.152;2022-10-16T00:51:38;20.20;99.90
10175;DHT22;18221;38.704;0.152;2022-10-16T00:54:11;20.20;99.90
10175;DHT22;18221;38.704;0.152;2022-10-16T00:56:43;20.20;99.90
10175;DHT22;18221;38.704;0.152;2022-10-16T00:59:17;20.10;99.90
10175;DHT22;18221;38.704;0.152;2022-10-16T01:01:51;20.20;99.90
10175;DHT22;18221;38.704;0.152;2022-10-16T01:04:19;20.20;99.90
10175;DHT22;18221;38.704;0.152;2022-10-16T01:06:54;20.20;99.90
10175;DHT22;18221;38.704;0.152;2022-10-16T01:09:36;20.20;99.90
10175;DHT22;18221;38.704;0.152;2022-10-16T01:12:12;20.20;99.90
10175;DHT22;18221;38.704;0.152;2022-10-16T01:14:48;20.20;99.90
10175;DHT22;18221;38.704;0.152;2022-10-16T01:17:25;20.20;99.90
10175;DHT22;18221;38.704;0.152;2022-10-16T01:20:06;20.20;99.90
10175;DHT22;18221;38.704;0.152;2022-10-16T01:22:48;20.20;99.90
10175;DHT22;18221;38.704;0.152;2022-10-16T01:28:47;20.20;99.90
10175;DHT22;18221;38.704;0.152;2022-10-16T01:31:24;20.10;99.90
10175;DHT22;18221;38.704;0.152;2022-10-16T01:34:00;20.10;99.90
10175;DHT22;18221;38.704;0.152;2022-10-16T01:36:37;20.10;99.90
10175;DHT22;18221;38.704;0.152;2022-10-16T01:39:10;20.10;99.90
10175;DHT22;18221;38.704;0.152;2022-10-16T01:41:41;20.00;99.90
10175;DHT22;18221;38.704;0.152;2022-10-16T01:44:18;20.10;99.90
10175;DHT22;18221;38.704;0.152;2022-10-16T01:46:51;20.00;99.90
10175;DHT22;18221;38.704;0.152;2022-10-16T01:49:21;20.00;99.90
10175;DHT22;18221;38.704;0.152;2022-10-16T01:51:56;20.00;99.90
10175;DHT22;18221;38.704;0.152;2022-10-16T01:54:28;20.00;99.90
10175;DHT22;18221;38.704;0.152;2022-10-16T01:57:00;20.00;99.90
10175;DHT22;18221;38.704;0.152;2022-10-16T01:59:36;20.00;99.90
10175;DHT22;18221;38.704;0.152;2022-10-16T02:02:10;20.00;99.90
10175;DHT22;18221;38.704;0.152;2022-10-16T02:04:43;20.00;99.90
10175;DHT22;18221;38.704;0.152;2022-10-16T02:07:13;20.00;99.90
10175;DHT22;18221;38.704;0.152;2022-10-16T02:09:42;20.00;99.90
10175;DHT22;18221;38.704;0.152;2022-10-16T02:12:14;20.00;99.90
10175;DHT22;18221;38.704;0.152;2022-10-16T02:14:47;20.00;99.90
10175;DHT22;18221;38.704;0.152;2022-10-16T02:17:17;19.90;99.90
10175;DHT22;18221;38.704;0.152;2022-10-16T02:19:46;19.90;99.90
10175;DHT22;18221;38.704;0.152;2022-10-16T02:22:21;19.90;99.90
10175;DHT22;18221;38.704;0.152;2022-10-16T02:24:56;19.90;99.90
10175;DHT22;18221;38.704;0.152;2022-10-16T02:27:31;19.90;99.90
10175;DHT22;18221;38.704;0.152;2022-10-16T02:30:07;19.90;99.90
10175;DHT22;18221;38.704;0.152;2022-10-16T02:32:43;19.90;99.90
10175;DHT22;18221;38.704;0.152;2022-10-16T02:35:16;19.90;99.90
10175;DHT22;18221;38.704;0.152;2022-10-16T02:37:46;19.90;99.90
10175;DHT22;18221;38.704;0.152;2022-10-16T02:40:17;19.90;99.90
10175;DHT22;18221;38.704;0.152;2022-10-16T02:42:50;19.90;99.90
10175;DHT22;18221;38.704;0.152;2022-10-16T02:45:22;19.90;99.90
10175;DHT22;18221;38.704;0.152;2022-10-16T02:47:50;19.80;99.90
10175;DHT22;18221;38.704;0.152;2022-10-16T02:50:18;19.80;99.90
10175;DHT22;18221;38.704;0.152;2022-10-16T02:52:46;19.80;99.90
10175;DHT22;18221;38.704;0.152;2022-10-16T02:55:14;19.80;99.90
10175;DHT22;18221;38.704;0.152;2022-10-16T02:57:42;19.80;99.90
10175;DHT22;18221;38.704;0.152;2022-10-16T03:00:12;19.80;99.90
10175;DHT22;18221;38.704;0.152;2022-10-16T03:02:43;19.80;99.90
10175;DHT22;18221;38.704;0.152;2022-10-16T03:05:12;19.70;99.90
10175;DHT22;18221;38.704;0.152;2022-10-16T03:07:40;19.70;99.90
10175;DHT22;18221;38.704;0.152;2022-10-16T03:10:08;19.80;99.90
10175;DHT22;18221;38.704;0.152;2022-10-16T03:12:36;19.70;99.90
10175;DHT22;18221;38.704;0.152;2022-10-16T03:15:05;19.70;99.90
10175;DHT22;18221;38.704;0.152;2022-10-16T03:17:33;19.70;99.90
10175;DHT22;18221;38.704;0.152;2022-10-16T03:20:03;19.60;99.90
10175;DHT22;18221;38.704;0.152;2022-10-16T03:22:32;19.60;99.90
10175;DHT22;18221;38.704;0.152;2022-10-16T03:25:00;19.60;99.90
10175;DHT22;18221;38.704;0.152;2022-10-16T03:27:27;19.60;99.90
10175;DHT22;18221;38.704;0.152;2022-10-16T03:29:55;19.60;99.90
10175;DHT22;18221;38.704;0.152;2022-10-16T03:32:23;19.60;99.90
10175;DHT22;18221;38.704;0.152;2022-10-16T03:34:51;19.70;99.90
10175;DHT22;18221;38.704;0.152;2022-10-16T03:37:21;19.60;99.90
10175;DHT22;18221;38.704;0.152;2022-10-16T03:39:49;19.70;99.90
10175;DHT22;18221;38.704;0.152;2022-10-16T03:42:17;19.60;99.90
10175;DHT22;18221;38.704;0.152;2022-10-16T03:44:45;19.60;99.90
10175;DHT22;18221;38.704;0.152;2022-10-16T03:47:13;19.60;99.90
10175;DHT22;18221;38.704;0.152;2022-10-16T03:49:40;19.50;99.90
10175;DHT22;18221;38.704;0.152;2022-10-16T03:52:08;19.50;99.90
10175;DHT22;18221;38.704;0.152;2022-10-16T03:54:38;19.50;99.90
10175;DHT22;18221;38.704;0.152;2022-10-16T03:57:05;19.50;99.90
10175;DHT22;18221;38.704;0.152;2022-10-16T03:59:33;19.50;99.90
10175;DHT22;18221;38.704;0.152;2022-10-16T04:02:01;19.50;99.90
10175;DHT22;18221;38.704;0.152;2022-10-16T04:04:29;19.50;99.90
10175;DHT22;18221;38.704;0.152;2022-10-16T04:06:57;19.50;99.90
10175;DHT22;18221;38.704;0.152;2022-10-16T04:09:25;19.60;99.90
10175;DHT22;18221;38.704;0.152;2022-10-16T04:11:54;19.60;99.90
10175;DHT22;18221;38.704;0.152;2022-10-16T04:14:22;19.50;99.90
10175;DHT22;18221;38.704;0.152;2022-10-16T04:16:50;19.50;99.90
10175;DHT22;18221;38.704;0.152;2022-10-16T04:19:18;19.50;99.90
10175;DHT22;18221;38.704;0.152;2022-10-16T04:21:45;19.50;99.90
10175;DHT22;18221;38.704;0.152;2022-10-16T04:24:13;19.40;99.90
10175;DHT22;18221;38.704;0.152;2022-10-16T04:26:41;19.40;99.90
10175;DHT22;18221;38.704;0.152;2022-10-16T04:29:10;19.40;99.90
10175;DHT22;18221;38.704;0.152;2022-10-16T04:31:38;19.40;99.90
10175;DHT22;18221;38.704;0.152;2022-10-16T04:34:06;19.40;99.90
10175;DHT22;18221;38.704;0.152;2022-10-16T04:36:34;19.40;99.90
10175;DHT22;18221;38.704;0.152;2022-10-16T04:39:02;19.40;99.90
10175;DHT22;18221;38.704;0.152;2022-10-16T04:41:30;19.40;99.90
10175;DHT22;18221;38.704;0.152;2022-10-16T04:43:57;19.50;99.90
10175;DHT22;18221;38.704;0.152;2022-10-16T04:46:27;19.50;99.90
10175;DHT22;18221;38.704;0.152;2022-10-16T04:48:55;19.40;99.90
10175;DHT22;18221;38.704;0.152;2022-10-16T04:51:22;19.50;99.90
10175;DHT22;18221;38.704;0.152;2022-10-16T04:53:51;19.50;99.90
10175;DHT22;18221;38.704;0.152;2022-10-16T04:56:19;19.50;99.90
10175;DHT22;18221;38.704;0.152;2022-10-16T04:58:47;19.60;99.90
10175;DHT22;18221;38.704;0.152;2022-10-16T05:01:15;19.60;99.90
10175;DHT22;18221;38.704;0.152;2022-10-16T05:03:44;19.60;99.90
10175;DHT22;18221;38.704;0.152;2022-10-16T05:06:12;19.60;99.90
10175;DHT22;18221;38.704;0.152;2022-10-16T05:08:40;19.50;99.90
10175;DHT22;18221;38.704;0.152;2022-10-16T05:11:07;19.50;99.90
10175;DHT22;18221;38.704;0.152;2022-10-16T05:13:35;19.50;99.90
10175;DHT22;18221;38.704;0.152;2022-10-16T05:16:04;19.50;99.90
10175;DHT22;18221;38.704;0.152;2022-10-16T05:18:32;19.50;99.90
10175;DHT22;18221;38.704;0.152;2022-10-16T05:21:01;19.60;99.90
10175;DHT22;18221;38.704;0.152;2022-10-16T05:23:29;19.60;99.90
10175;DHT22;18221;38.704;0.152;2022-10-16T05:25:58;19.60;99.90
10175;DHT22;18221;38.704;0.152;2022-10-16T05:28:27;19.70;99.90
10175;DHT22;18221;38.704;0.152;2022-10-16T05:30:56;19.70;99.90
10175;DHT22;18221;38.704;0.152;2022-10-16T05:33:25;19.70;99.90
10175;DHT22;18221;38.704;0.152;2022-10-16T05:35:53;19.80;99.90
10175;DHT22;18221;38.704;0.152;2022-10-16T05:38:22;19.80;99.90
10175;DHT22;18221;38.704;0.152;2022-10-16T05:40:53;19.80;99.90
10175;DHT22;18221;38.704;0.152;2022-10-16T05:43:22;19.80;99.90
10175;DHT22;18221;38.704;0.152;2022-10-16T05:45:57;19.80;99.90
10175;DHT22;18221;38.704;0.152;2022-10-16T05:48:26;19.80;99.90
10175;DHT22;18221;38.704;0.152;2022-10-16T05:50:58;19.80;99.90
10175;DHT22;18221;38.704;0.152;2022-10-16T05:53:29;19.80;99.90
10175;DHT22;18221;38.704;0.152;2022-10-16T05:55:59;19.70;99.90
10175;DHT22;18221;38.704;0.152;2022-10-16T05:58:29;19.70;99.90
10175;DHT22;18221;38.704;0.152;2022-10-16T06:01:00;19.70;99.90
10175;DHT22;18221;38.704;0.152;2022-10-16T06:03:30;19.70;99.90
10175;DHT22;18221;38.704;0.152;2022-10-16T06:05:57;19.80;99.90
10175;DHT22;18221;38.704;0.152;2022-10-16T06:08:25;19.70;99.90
10175;DHT22;18221;38.704;0.152;2022-10-16T06:11:02;19.80;99.90
10175;DHT22;18221;38.704;0.152;2022-10-16T06:13:30;19.80;99.90
10175;DHT22;18221;38.704;0.152;2022-10-16T06:15:59;19.80;99.90
10175;DHT22;18221;38.704;0.152;2022-10-16T06:18:28;19.90;99.90
10175;DHT22;18221;38.704;0.152;2022-10-16T06:20:57;19.90;99.90
10175;DHT22;18221;38.704;0.152;2022-10-16T06:23:25;19.90;99.90
10175;DHT22;18221;38.704;0.152;2022-10-16T06:26:04;19.90;99.90
10175;DHT22;18221;38.704;0.152;2022-10-16T06:28:33;19.90;99.90
10175;DHT22;18221;38.704;0.152;2022-10-16T06:31:01;19.80;99.90
10175;DHT22;18221;38.704;0.152;2022-10-16T06:33:30;19.80;99.90
10175;DHT22;18221;38.704;0.152;2022-10-16T06:36:01;19.80;99.90
10175;DHT22;18221;38.704;0.152;2022-10-16T06:38:30;19.80;99.90
10175;DHT22;18221;38.704;0.152;2022-10-16T06:41:01;19.70;99.90
10175;DHT22;18221;38.704;0.152;2022-10-16T06:43:29;19.70;99.90
10175;DHT22;18221;38.704;0.152;2022-10-16T06:45:59;19.70;99.90
10175;DHT22;18221;38.704;0.152;2022-10-16T06:48:28;19.70;99.90
10175;DHT22;18221;38.704;0.152;2022-10-16T06:50:58;19.80;99.90
10175;DHT22;18221;38.704;0.152;2022-10-16T06:53:27;19.90;99.90
10175;DHT22;18221;38.704;0.152;2022-10-16T06:55:56;19.90;99.90
10175;DHT22;18221;38.704;0.152;2022-10-16T06:58:33;19.90;99.90
10175;DHT22;18221;38.704;0.152;2022-10-16T07:01:01;19.90;99.90
10175;DHT22;18221;38.704;0.152;2022-10-16T07:03:29;19.90;99.90
10175;DHT22;18221;38.704;0.152;2022-10-16T07:06:00;20.00;99.90
10175;DHT22;18221;38.704;0.152;2022-10-16T07:08:31;19.60;99.90
10175;DHT22;18221;38.704;0.152;2022-10-16T07:11:01;19.90;99.90
10175;DHT22;18221;38.704;0.152;2022-10-16T07:13:33;20.00;99.90
10175;DHT22;18221;38.704;0.152;2022-10-16T07:16:04;20.00;99.90
10175;DHT22;18221;38.704;0.152;2022-10-16T07:18:33;20.00;99.90
10175;DHT22;18221;38.704;0.152;2022-10-16T07:21:05;20.00;99.90
10175;DHT22;18221;38.704;0.152;2022-10-16T07:23:33;20.00;99.90
10175;DHT22;18221;38.704;0.152;2022-10-16T07:26:04;20.00;99.90
10175;DHT22;18221;38.704;0.152;2022-10-16T07:28:33;20.00;99.90
10175;DHT22;18221;38.704;0.152;2022-10-16T07:31:02;20.10;99.90
10175;DHT22;18221;38.704;0.152;2022-10-16T07:33:31;20.10;99.90
10175;DHT22;18221;38.704;0.152;2022-10-16T07:36:00;20.10;99.90
10175;DHT22;18221;38.704;0.152;2022-10-16T07:38:28;20.20;99.90
10175;DHT22;18221;38.704;0.152;2022-10-16T07:40:57;20.30;99.90
10175;DHT22;18221;38.704;0.152;2022-10-16T07:43:27;20.30;99.90
10175;DHT22;18221;38.704;0.152;2022-10-16T07:45:55;20.30;99.90
10175;DHT22;18221;38.704;0.152;2022-10-16T07:48:26;20.30;99.90
10175;DHT22;18221;38.704;0.152;2022-10-16T07:50:57;20.30;99.90
10175;DHT22;18221;38.704;0.152;2022-10-16T07:53:26;20.40;99.90
10175;DHT22;18221;38.704;0.152;2022-10-16T07:55:57;20.40;99.90
10175;DHT22;18221;38.704;0.152;2022-10-16T07:58:28;20.40;99.90
10175;DHT22;18221;38.704;0.152;2022-10-16T08:00:57;20.40;99.90
10175;DHT22;18221;38.704;0.152;2022-10-16T08:03:26;20.40;99.90
10175;DHT22;18221;38.704;0.152;2022-10-16T08:05:54;20.50;99.90
10175;DHT22;18221;38.704;0.152;2022-10-16T08:08:24;20.50;99.90
10175;DHT22;18221;38.704;0.152;2022-10-16T08:10:53;20.60;99.90
10175;DHT22;18221;38.704;0.152;2022-10-16T08:13:21;20.60;99.90
10175;DHT22;18221;38.704;0.152;2022-10-16T08:15:51;20.60;99.90
10175;DHT22;18221;38.704;0.152;2022-10-16T08:18:20;20.60;99.90
10175;DHT22;18221;38.704;0.152;2022-10-16T08:20:55;20.70;99.90
10175;DHT22;18221;38.704;0.152;2022-10-16T08:23:24;20.80;99.90
10175;DHT22;18221;38.704;0.152;2022-10-16T08:25:53;20.90;99.90
10175;DHT22;18221;38.704;0.152;2022-10-16T08:28:21;20.90;99.90
10175;DHT22;18221;38.704;0.152;2022-10-16T08:30:51;20.90;99.90
10175;DHT22;18221;38.704;0.152;2022-10-16T08:33:20;21.00;99.90
10175;DHT22;18221;38.704;0.152;2022-10-16T08:35:51;21.10;99.90
10175;DHT22;18221;38.704;0.152;2022-10-16T08:38:21;21.10;99.90
10175;DHT22;18221;38.704;0.152;2022-10-16T08:40:49;21.10;99.90
10175;DHT22;18221;38.704;0.152;2022-10-16T08:46:37;21.10;99.90
10175;DHT22;18221;38.704;0.152;2022-10-16T08:49:14;21.20;99.90
10175;DHT22;18221;38.704;0.152;2022-10-16T08:51:42;21.30;99.90
10175;DHT22;18221;38.704;0.152;2022-10-16T08:54:26;21.30;99.90
10175;DHT22;18221;38.704;0.152;2022-10-16T08:56:59;21.40;99.90
10175;DHT22;18221;38.704;0.152;2022-10-16T08:59:36;21.60;99.90
10175;DHT22;18221;38.704;0.152;2022-10-16T09:02:23;21.50;99.90
10175;DHT22;18221;38.704;0.152;2022-10-16T09:05:17;21.50;99.90
10175;DHT22;18221;38.704;0.152;2022-10-16T09:08:03;21.60;99.90
10175;DHT22;18221;38.704;0.152;2022-10-16T09:10:43;21.50;99.90
10175;DHT22;18221;38.704;0.152;2022-10-16T09:13:26;21.50;99.90
10175;DHT22;18221;38.704;0.152;2022-10-16T09:16:09;21.60;99.90
10175;DHT22;18221;38.704;0.152;2022-10-16T09:18:52;21.60;99.90
10175;DHT22;18221;38.704;0.152;2022-10-16T09:21:27;21.70;99.90
10175;DHT22;18221;38.704;0.152;2022-10-16T09:23:59;21.70;99.90
10175;DHT22;18221;38.704;0.152;2022-10-16T09:26:35;21.80;99.90
10175;DHT22;18221;38.704;0.152;2022-10-16T09:29:03;21.80;99.90
10175;DHT22;18221;38.704;0.152;2022-10-16T09:31:31;21.90;99.90
10175;DHT22;18221;38.704;0.152;2022-10-16T09:34:06;21.90;99.90
10175;DHT22;18221;38.704;0.152;2022-10-16T09:36:41;22.00;99.90
10175;DHT22;18221;38.704;0.152;2022-10-16T09:39:12;22.00;99.90
10175;DHT22;18221;38.704;0.152;2022-10-16T09:41:42;22.00;99.90
10175;DHT22;18221;38.704;0.152;2022-10-16T09:44:19;22.10;99.90
10175;DHT22;18221;38.704;0.152;2022-10-16T09:47:01;22.10;99.90
10175;DHT22;18221;38.704;0.152;2022-10-16T09:49:31;22.10;99.90
10175;DHT22;18221;38.704;0.152;2022-10-16T09:52:10;22.20;99.90
10175;DHT22;18221;38.704;0.152;2022-10-16T09:54:49;22.20;99.90
10175;DHT22;18221;38.704;0.152;2022-10-16T09:57:19;22.20;99.90
10175;DHT22;18221;38.704;0.152;2022-10-16T09:59:51;22.20;99.90
10175;DHT22;18221;38.704;0.152;2022-10-16T10:02:26;22.30;99.90
10175;DHT22;18221;38.704;0.152;2022-10-16T10:04:58;22.30;99.90
10175;DHT22;18221;38.704;0.152;2022-10-16T10:07:28;22.40;99.90
10175;DHT22;18221;38.704;0.152;2022-10-16T10:10:01;22.40;99.90
10175;DHT22;18221;38.704;0.152;2022-10-16T10:12:32;22.40;99.90
10175;DHT22;18221;38.704;0.152;2022-10-16T10:15:06;22.40;99.90
10175;DHT22;18221;38.704;0.152;2022-10-16T10:17:46;22.50;99.90
10175;DHT22;18221;38.704;0.152;2022-10-16T10:20:27;22.60;99.90
10175;DHT22;18221;38.704;0.152;2022-10-16T10:22:57;22.60;99.90
10175;DHT22;18221;38.704;0.152;2022-10-16T10:25:38;22.60;99.90
10175;DHT22;18221;38.704;0.152;2022-10-16T10:28:33;22.60;99.90
10175;DHT22;18221;38.704;0.152;2022-10-16T10:31:19;22.70;99.90
10175;DHT22;18221;38.704;0.152;2022-10-16T10:33:58;22.80;99.90
10175;DHT22;18221;38.704;0.152;2022-10-16T10:36:38;22.70;99.90
10175;DHT22;18221;38.704;0.152;2022-10-16T10:39:11;22.70;99.90
10175;DHT22;18221;38.704;0.152;2022-10-16T10:42:09;22.70;99.90
10175;DHT22;18221;38.704;0.152;2022-10-16T10:45:12;22.70;99.90
10175;DHT22;18221;38.704;0.152;2022-10-16T10:48:12;22.70;99.90
10175;DHT22;18221;38.704;0.152;2022-10-16T10:50:51;22.80;99.90
10175;DHT22;18221;38.704;0.152;2022-10-16T10:53:38;22.80;99.90
10175;DHT22;18221;38.704;0.152;2022-10-16T10:56:27;22.90;99.90
10175;DHT22;18221;38.704;0.152;2022-10-16T11:02:35;22.90;99.90
10175;DHT22;18221;38.704;0.152;2022-10-16T11:05:33;22.90;99.90
10175;DHT22;18221;38.704;0.152;2022-10-16T11:08:13;22.90;99.90
10175;DHT22;18221;38.704;0.152;2022-10-16T11:10:53;22.90;99.90
10175;DHT22;18221;38.704;0.152;2022-10-16T11:13:32;23.00;99.90
10175;DHT22;18221;38.704;0.152;2022-10-16T11:16:13;23.10;99.90
10175;DHT22;18221;38.704;0.152;2022-10-16T11:18:50;23.20;99.90
10175;DHT22;18221;38.704;0.152;2022-10-16T11:21:23;23.20;99.90
10175;DHT22;18221;38.704;0.152;2022-10-16T11:23:55;23.30;99.90
10175;DHT22;18221;38.704;0.152;2022-10-16T11:26:32;23.40;99.90
10175;DHT22;18221;38.704;0.152;2022-10-16T11:29:04;23.30;99.90
10175;DHT22;18221;38.704;0.152;2022-10-16T11:31:41;23.30;99.90
10175;DHT22;18221;38.704;0.152;2022-10-16T11:34:17;23.40;99.90
10175;DHT22;18221;38.704;0.152;2022-10-16T11:36:57;23.50;99.90
10175;DHT22;18221;38.704;0.152;2022-10-16T11:39:31;23.80;99.90
10175;DHT22;18221;38.704;0.152;2022-10-16T11:42:04;23.80;99.90
10175;DHT22;18221;38.704;0.152;2022-10-16T11:44:44;23.80;99.90
10175;DHT22;18221;38.704;0.152;2022-10-16T11:47:30;23.80;99.90
10175;DHT22;18221;38.704;0.152;2022-10-16T11:50:09;23.80;99.90
10175;DHT22;18221;38.704;0.152;2022-10-16T11:52:55;24.00;99.90
10175;DHT22;18221;38.704;0.152;2022-10-16T11:55:31;24.10;99.90
10175;DHT22;18221;38.704;0.152;2022-10-16T11:58:09;24.10;99.90
10175;DHT22;18221;38.704;0.152;2022-10-16T12:00:53;24.00;99.90
10175;DHT22;18221;38.704;0.152;2022-10-16T12:03:30;23.90;99.90
10175;DHT22;18221;38.704;0.152;2022-10-16T12:06:16;23.90;99.90
10175;DHT22;18221;38.704;0.152;2022-10-16T12:08:53;23.90;99.90
10175;DHT22;18221;38.704;0.152;2022-10-16T12:11:36;24.10;99.90
10175;DHT22;18221;38.704;0.152;2022-10-16T12:17:23;24.10;99.90
10175;DHT22;18221;38.704;0.152;2022-10-16T12:20:00;24.20;99.90
10175;DHT22;18221;38.704;0.152;2022-10-16T12:22:30;24.30;99.90
10175;DHT22;18221;38.704;0.152;2022-10-16T12:24:59;24.30;99.90
10175;DHT22;18221;38.704;0.152;2022-10-16T12:27:29;24.20;99.90
10175;DHT22;18221;38.704;0.152;2022-10-16T12:30:02;24.40;99.90
10175;DHT22;18221;38.704;0.152;2022-10-16T12:32:35;24.20;99.90
10175;DHT22;18221;38.704;0.152;2022-10-16T12:35:06;24.10;99.90
10175;DHT22;18221;38.704;0.152;2022-10-16T12:37:48;24.00;99.90
10175;DHT22;18221;38.704;0.152;2022-10-16T12:40:25;24.00;99.90
10175;DHT22;18221;38.704;0.152;2022-10-16T12:42:56;24.20;99.90
10175;DHT22;18221;38.704;0.152;2022-10-16T12:45:28;24.30;99.90
10175;DHT22;18221;38.704;0.152;2022-10-16T12:47:59;24.40;99.90
10175;DHT22;18221;38.704;0.152;2022-10-16T12:50:33;24.40;99.90
10175;DHT22;18221;38.704;0.152;2022-10-16T12:53:04;24.30;99.90
10175;DHT22;18221;38.704;0.152;2022-10-16T12:55:56;24.30;99.90
10175;DHT22;18221;38.704;0.152;2022-10-16T12:58:54;24.20;99.90
10175;DHT22;18221;38.704;0.152;2022-10-16T13:01:44;24.50;99.90
10175;DHT22;18221;38.704;0.152;2022-10-16T13:04:47;24.70;99.90
10175;DHT22;18221;38.704;0.152;2022-10-16T13:07:41;24.50;99.90
10175;DHT22;18221;38.704;0.152;2022-10-16T13:10:21;24.30;99.90
10175;DHT22;18221;38.704;0.152;2022-10-16T13:16:05;24.50;99.90
10175;DHT22;18221;38.704;0.152;2022-10-16T13:18:52;24.50;99.90
10175;DHT22;18221;38.704;0.152;2022-10-16T13:21:39;24.70;99.90
10175;DHT22;18221;38.704;0.152;2022-10-16T13:24:27;24.60;99.90
10175;DHT22;18221;38.704;0.152;2022-10-16T13:27:21;24.50;99.90
10175;DHT22;18221;38.704;0.152;2022-10-16T13:30:02;24.60;99.90
10175;DHT22;18221;38.704;0.152;2022-10-16T13:32:39;24.50;99.90
10175;DHT22;18221;38.704;0.152;2022-10-16T13:35:21;24.50;99.90
10175;DHT22;18221;38.704;0.152;2022-10-16T13:37:50;24.50;99.90
10175;DHT22;18221;38.704;0.152;2022-10-16T13:40:20;24.50;99.90
10175;DHT22;18221;38.704;0.152;2022-10-16T13:42:50;24.50;99.90
10175;DHT22;18221;38.704;0.152;2022-10-16T13:45:21;24.50;99.90
10175;DHT22;18221;38.704;0.152;2022-10-16T13:48:01;24.80;99.90
10175;DHT22;18221;38.704;0.152;2022-10-16T13:50:32;24.70;99.90
10175;DHT22;18221;38.704;0.152;2022-10-16T13:53:06;24.70;99.90
10175;DHT22;18221;38.704;0.152;2022-10-16T13:55:40;24.80;99.90
10175;DHT22;18221;38.704;0.152;2022-10-16T13:58:12;24.80;99.90
10175;DHT22;18221;38.704;0.152;2022-10-16T14:00:53;24.80;99.90
10175;DHT22;18221;38.704;0.152;2022-10-16T14:03:24;24.70;99.90
10175;DHT22;18221;38.704;0.152;2022-10-16T14:05:56;24.50;99.90
10175;DHT22;18221;38.704;0.152;2022-10-16T14:08:27;24.50;99.90
10175;DHT22;18221;38.704;0.152;2022-10-16T14:10:57;24.40;99.90
10175;DHT22;18221;38.704;0.152;2022-10-16T14:13:36;24.30;99.90
10175;DHT22;18221;38.704;0.152;2022-10-16T14:16:09;24.30;99.90
10175;DHT22;18221;38.704;0.152;2022-10-16T14:18:46;24.30;99.90
10175;DHT22;18221;38.704;0.152;2022-10-16T14:21:25;24.20;99.90
10175;DHT22;18221;38.704;0.152;2022-10-16T14:23:54;24.10;99.90
10175;DHT22;18221;38.704;0.152;2022-10-16T14:26:24;24.00;99.90
10175;DHT22;18221;38.704;0.152;2022-10-16T14:29:14;24.00;99.90
10175;DHT22;18221;38.704;0.152;2022-10-16T14:31:57;23.90;99.90
10175;DHT22;18221;38.704;0.152;2022-10-16T14:34:30;23.90;99.90
10175;DHT22;18221;38.704;0.152;2022-10-16T14:37:05;23.80;99.90
10175;DHT22;18221;38.704;0.152;2022-10-16T14:39:36;23.70;99.90
10175;DHT22;18221;38.704;0.152;2022-10-16T14:42:04;23.60;99.90
10175;DHT22;18221;38.704;0.152;2022-10-16T14:44:33;23.60;99.90
10175;DHT22;18221;38.704;0.152;2022-10-16T14:47:09;22.40;99.90
10175;DHT22;18221;38.704;0.152;2022-10-16T14:49:41;23.60;99.90
10175;DHT22;18221;38.704;0.152;2022-10-16T14:52:14;23.70;99.90
10175;DHT22;18221;38.704;0.152;2022-10-16T14:54:42;23.80;99.90
10175;DHT22;18221;38.704;0.152;2022-10-16T14:57:17;23.80;99.90
10175;DHT22;18221;38.704;0.152;2022-10-16T14:59:46;23.80;99.90
10175;DHT22;18221;38.704;0.152;2022-10-16T15:02:27;23.80;99.90
10175;DHT22;18221;38.704;0.152;2022-10-16T15:04:57;23.80;99.90
10175;DHT22;18221;38.704;0.152;2022-10-16T15:07:30;23.80;99.90
10175;DHT22;18221;38.704;0.152;2022-10-16T15:09:58;23.80;99.90
10175;DHT22;18221;38.704;0.152;2022-10-16T15:12:29;23.70;99.90
10175;DHT22;18221;38.704;0.152;2022-10-16T15:15:00;24.20;99.90
10175;DHT22;18221;38.704;0.152;2022-10-16T15:17:40;23.50;99.90
10175;DHT22;18221;38.704;0.152;2022-10-16T15:20:08;23.40;99.90
10175;DHT22;18221;38.704;0.152;2022-10-16T15:22:38;23.40;99.90
10175;DHT22;18221;38.704;0.152;2022-10-16T15:25:13;24.20;99.90
10175;DHT22;18221;38.704;0.152;2022-10-16T15:27:53;23.30;99.90
10175;DHT22;18221;38.704;0.152;2022-10-16T15:30:21;23.30;99.90
10175;DHT22;18221;38.704;0.152;2022-10-16T15:32:49;23.30;99.90
10175;DHT22;18221;38.704;0.152;2022-10-16T15:35:17;23.30;99.90
10175;DHT22;18221;38.704;0.152;2022-10-16T15:37:48;23.30;99.90
10175;DHT22;18221;38.704;0.152;2022-10-16T15:40:17;23.30;99.90
10175;DHT22;18221;38.704;0.152;2022-10-16T15:42:46;23.40;99.90
10175;DHT22;18221;38.704;0.152;2022-10-16T15:45:14;23.30;99.90
10175;DHT22;18221;38.704;0.152;2022-10-16T15:47:43;23.30;99.90
10175;DHT22;18221;38.704;0.152;2022-10-16T15:50:13;23.40;99.90
10175;DHT22;18221;38.704;0.152;2022-10-16T15:52:42;23.30;99.90
10175;DHT22;18221;38.704;0.152;2022-10-16T15:55:13;23.40;99.90
10175;DHT22;18221;38.704;0.152;2022-10-16T15:57:42;23.30;99.90
10175;DHT22;18221;38.704;0.152;2022-10-16T16:00:12;23.30;99.90
10175;DHT22;18221;38.704;0.152;2022-10-16T16:02:53;23.30;99.90
10175;DHT22;18221;38.704;0.152;2022-10-16T16:05:23;23.20;99.90
10175;DHT22;18221;38.704;0.152;2022-10-16T16:07:51;23.30;99.90
10175;DHT22;18221;38.704;0.152;2022-10-16T16:10:20;23.20;99.90
10175;DHT22;18221;38.704;0.152;2022-10-16T16:12:49;23.20;99.90
10175;DHT22;18221;38.704;0.152;2022-10-16T16:15:19;23.20;99.90
10175;DHT22;18221;38.704;0.152;2022-10-16T16:17:48;23.30;99.90
10175;DHT22;18221;38.704;0.152;2022-10-16T16:20:17;23.40;99.90
10175;DHT22;18221;38.704;0.152;2022-10-16T16:22:44;23.30;99.90
10175;DHT22;18221;38.704;0.152;2022-10-16T16:25:12;23.30;99.90
10175;DHT22;18221;38.704;0.152;2022-10-16T16:27:41;23.30;99.90
10175;DHT22;18221;38.704;0.152;2022-10-16T16:30:11;23.30;99.90